CheckWX is a tool to help pilots better visualize weather data.  It is not intended as a substitute for an official pre-flight weather briefing.

08:23:57 UTC

KDDH METAR
William H Morse State Airport
Bennington, Vermont, USA
Current

30 mins ago

KDDH 210754Z AUTO 00000KT 10SM CLR M19/M22 A3033 RMK AO2 SLP290 I1000 T11891217
Observed
Jan-21 @ 07:54 UTC
Visibility
10 SM
Flight Rules
VFR
Cloud Levels
  • Clear skies
Temperature
-19°C / -2°F
Dewpoint
-22°C / -8°F
Humidity
77%
Altimeter
30.33" Hg
Pressure
1027.12 hPa
Previous

1 hour ago

KDDH 210654Z AUTO 17003KT 10SM CLR M19/M22 A3033 RMK AO2 SLP291 T11891217
Observed
Jan-21 @ 06:54 UTC
Wind
  • 170° at 3 KTS
Visibility
10 SM
Flight Rules
VFR
Cloud Levels
  • Clear skies
Temperature
-19°C / -2°F
Dewpoint
-22°C / -8°F
Humidity
77%
Altimeter
30.33" Hg
Pressure
1027.12 hPa
Previous

2 hours ago

KDDH 210554Z AUTO 00000KT 10SM CLR M18/M21 A3033 RMK AO2 SLP289 T11831211 11106 21183 55000
Observed
Jan-21 @ 05:54 UTC
Visibility
10 SM
Flight Rules
VFR
Cloud Levels
  • Clear skies
Temperature
-18°C / -0°F
Dewpoint
-21°C / -6°F
Humidity
78%
Altimeter
30.33" Hg
Pressure
1027.12 hPa